createdAt,value
2023-03-24T00:00:36.993Z,6.59
2023-03-24T00:01:37.042Z,7.16
2023-03-24T00:02:37.164Z,6.92
2023-03-24T00:03:37.252Z,7.05
2023-03-24T00:04:37.252Z,6.56
2023-03-24T00:05:37.240Z,6.56
2023-03-24T00:06:37.288Z,6.88
2023-03-24T00:07:38.308Z,7.24
2023-03-24T00:08:37.330Z,7.22
2023-03-24T00:09:37.392Z,7.43
2023-03-24T00:10:37.435Z,7.88
2023-03-24T00:11:37.480Z,7.12
2023-03-24T00:12:37.511Z,6.92
2023-03-24T00:13:37.587Z,6.99
2023-03-24T00:14:37.628Z,7.60
2023-03-24T00:15:37.705Z,7.18
2023-03-24T00:16:37.698Z,6.74
2023-03-24T00:17:37.799Z,6.50
2023-03-24T00:18:37.805Z,7.31
2023-03-24T00:19:37.874Z,6.88
2023-03-24T00:20:37.921Z,6.46
2023-03-24T00:21:37.966Z,7.39
2023-03-24T00:22:38.022Z,7.42
2023-03-24T00:23:38.051Z,7.33
2023-03-24T00:24:38.123Z,6.54
2023-03-24T00:25:38.134Z,6.51
2023-03-24T00:26:38.190Z,6.63
2023-03-24T00:27:38.244Z,6.22
2023-03-24T00:28:38.296Z,6.93
2023-03-24T00:29:38.355Z,6.61
2023-03-24T00:30:38.432Z,6.72
2023-03-24T00:31:38.468Z,6.34
2023-03-24T00:32:38.633Z,7.54
2023-03-24T00:33:38.590Z,6.34
2023-03-24T00:34:38.689Z,6.97
2023-03-24T00:35:38.716Z,6.30
2023-03-24T00:36:38.745Z,6.92
2023-03-24T00:37:38.767Z,6.87
2023-03-24T00:38:38.818Z,7.13
2023-03-24T00:39:38.870Z,7.41
2023-03-24T00:40:38.947Z,7.12
2023-03-24T00:41:38.992Z,6.51
2023-03-24T00:42:39.014Z,7.14
2023-03-24T00:43:39.086Z,6.71
2023-03-24T00:44:39.136Z,6.26
2023-03-24T00:45:39.183Z,6.34
2023-03-24T00:46:39.243Z,7.24
2023-03-24T00:47:39.321Z,6.36
2023-03-24T00:48:39.323Z,7.02
2023-03-24T00:49:39.405Z,6.78
2023-03-24T00:50:39.723Z,6.37
2023-03-24T00:55:39.748Z,7.24
2023-03-24T00:56:39.815Z,6.09
2023-03-24T00:57:39.861Z,7.37
2023-03-24T00:58:39.908Z,6.92
2023-03-24T00:59:39.993Z,6.94
2023-03-24T01:00:40.024Z,7.33
2023-03-24T01:01:41.644Z,6.79
2023-03-24T01:02:40.158Z,6.38
2023-03-24T01:03:40.233Z,6.03
2023-03-24T01:04:40.265Z,6.31
2023-03-24T01:05:40.301Z,7.30
2023-03-24T01:06:40.360Z,6.72
2023-03-24T01:07:40.436Z,6.95
2023-03-24T01:08:40.453Z,6.99
2023-03-24T01:09:40.517Z,7.15
2023-03-24T01:10:40.580Z,7.39
2023-03-24T01:11:40.639Z,7.38
2023-03-24T01:12:40.735Z,6.32
2023-03-24T01:13:40.745Z,6.66
2023-03-24T01:14:40.846Z,7.61
2023-03-24T01:15:40.881Z,6.48
2023-03-24T01:16:41.018Z,6.42
2023-03-24T01:17:41.046Z,6.77
2023-03-24T01:18:41.054Z,6.58
2023-03-24T01:19:41.154Z,6.44
2023-03-24T01:20:41.186Z,6.78
2023-03-24T01:21:41.252Z,7.18
2023-03-24T01:22:41.364Z,6.60
2023-03-24T01:23:41.370Z,7.02
2023-03-24T01:24:41.442Z,6.36
2023-03-24T01:25:41.559Z,6.49
2023-03-24T01:26:41.601Z,6.40
2023-03-24T01:27:41.639Z,6.31
2023-03-24T01:28:41.693Z,7.13
2023-03-24T01:29:41.768Z,6.86
2023-03-24T01:30:41.808Z,6.10
2023-03-24T01:31:41.881Z,6.15
2023-03-24T01:32:42.007Z,6.85
2023-03-24T01:33:41.993Z,6.47
2023-03-24T01:34:42.060Z,6.78
2023-03-24T01:35:42.157Z,6.80
2023-03-24T01:36:42.183Z,7.74
2023-03-24T01:37:42.239Z,6.66
2023-03-24T01:38:42.293Z,6.69
2023-03-24T01:39:42.362Z,7.63
2023-03-24T01:40:42.590Z,6.90
2023-03-24T01:41:42.655Z,7.00
2023-03-24T01:42:42.567Z,6.85
2023-03-24T01:43:42.608Z,6.74
2023-03-24T01:44:42.689Z,7.18
2023-03-24T01:45:42.755Z,7.68
2023-03-24T01:46:42.783Z,7.25
2023-03-24T01:47:42.885Z,6.62
2023-03-24T01:48:42.911Z,6.29
2023-03-24T01:49:42.987Z,6.67
2023-03-24T01:50:43.258Z,6.52
2023-03-24T01:51:43.108Z,6.08
2023-03-24T01:52:43.160Z,6.75
2023-03-24T01:53:43.303Z,7.01
2023-03-24T01:54:43.339Z,6.62
2023-03-24T01:55:43.351Z,7.00
2023-03-24T01:56:43.436Z,6.30
2023-03-24T01:57:43.454Z,6.72
2023-03-24T01:58:43.525Z,7.38
2023-03-24T01:59:43.611Z,7.28
2023-03-24T02:00:43.860Z,6.98
2023-03-24T02:01:43.693Z,6.68
2023-03-24T02:02:43.817Z,6.83
2023-03-24T02:03:43.847Z,7.09
2023-03-24T02:04:43.831Z,7.30
2023-03-24T02:05:43.911Z,6.71
2023-03-24T02:06:44.032Z,6.66
2023-03-24T02:07:43.993Z,6.59
2023-03-24T02:08:44.074Z,7.03
2023-03-24T02:09:44.137Z,7.30
2023-03-24T02:10:44.474Z,7.29
2023-03-24T02:11:44.249Z,7.52
2023-03-24T02:12:44.305Z,6.45
2023-03-24T02:13:44.329Z,7.69
2023-03-24T02:14:44.394Z,7.06
2023-03-24T02:15:44.432Z,7.54
2023-03-24T02:16:44.474Z,6.97
2023-03-24T02:17:44.557Z,7.50
2023-03-24T02:18:44.575Z,7.00
2023-03-24T02:19:44.597Z,6.53
2023-03-24T02:20:44.819Z,6.81
2023-03-24T02:21:44.711Z,6.76
2023-03-24T02:22:44.786Z,6.34
2023-03-24T02:23:44.810Z,7.17
2023-03-24T02:24:44.833Z,7.26
2023-03-24T02:25:44.904Z,6.53
2023-03-24T02:26:44.936Z,7.44
2023-03-24T02:27:44.981Z,6.29
2023-03-24T02:28:45.017Z,7.46
2023-03-24T02:29:45.052Z,6.53
2023-03-24T02:30:45.228Z,7.15
2023-03-24T02:31:45.181Z,7.15
2023-03-24T02:32:45.177Z,7.02
2023-03-24T02:33:45.207Z,6.38
2023-03-24T02:34:45.240Z,6.93
2023-03-24T02:35:45.275Z,6.25
2023-03-24T02:36:45.274Z,7.73
2023-03-24T02:37:45.368Z,7.26
2023-03-24T02:38:45.370Z,6.28
2023-03-24T02:39:45.424Z,6.98
2023-03-24T02:40:45.617Z,6.74
2023-03-24T02:41:45.557Z,7.07
2023-03-24T02:42:45.598Z,6.50
2023-03-24T02:43:45.662Z,6.74
2023-03-24T02:44:45.697Z,6.99
2023-03-24T02:45:45.801Z,6.78
2023-03-24T02:46:45.795Z,6.95
2023-03-24T02:47:45.885Z,7.11
2023-03-24T02:48:46.503Z,6.51
2023-03-24T02:53:46.188Z,6.61
2023-03-24T02:54:46.207Z,7.37
2023-03-24T02:55:46.227Z,7.12
2023-03-24T02:56:46.291Z,6.75
2023-03-24T02:57:46.291Z,6.49
2023-03-24T02:58:46.323Z,7.28
2023-03-24T02:59:46.330Z,6.90
2023-03-24T03:02:46.360Z,7.33
2023-03-24T03:03:46.386Z,6.54
2023-03-24T03:04:46.538Z,6.77
2023-03-24T03:05:46.399Z,6.78
2023-03-24T03:06:46.437Z,6.95
2023-03-24T03:07:46.443Z,7.37
2023-03-24T03:08:46.465Z,6.57
2023-03-24T03:09:46.488Z,7.02
2023-03-24T03:17:46.649Z,6.95
2023-03-24T03:18:46.666Z,6.74
2023-03-24T03:19:46.664Z,6.47
2023-03-24T03:20:47.027Z,6.47
2023-03-24T03:21:46.877Z,6.99
2023-03-24T03:30:47.342Z,7.04
2023-03-24T03:31:47.178Z,7.08
2023-03-24T03:32:47.248Z,6.85
2023-03-24T03:33:47.302Z,7.34
2023-03-24T03:34:47.339Z,7.78
2023-03-24T03:35:47.667Z,7.19
2023-03-24T03:45:47.697Z,7.72
2023-03-24T03:46:47.523Z,6.59
2023-03-24T03:47:47.604Z,6.05
2023-03-24T03:48:47.559Z,7.01
2023-03-24T03:49:47.612Z,6.68
2023-03-24T03:55:47.688Z,7.12
2023-03-24T03:56:47.669Z,6.80
2023-03-24T04:01:47.651Z,6.95
2023-03-24T04:02:47.709Z,6.91
2023-03-24T04:04:50.686Z,7.45
2023-03-24T04:05:48.635Z,7.68
2023-03-24T04:10:47.597Z,7.00
2023-03-24T04:11:47.595Z,6.41
2023-03-24T04:12:47.595Z,7.10
2023-03-24T04:13:47.583Z,7.07
2023-03-24T04:18:47.531Z,6.76
2023-03-24T04:22:47.504Z,7.10
2023-03-24T04:23:47.519Z,6.83
2023-03-24T04:27:47.480Z,7.44
2023-03-24T04:28:47.507Z,7.58
2023-03-24T04:29:47.511Z,7.18
2023-03-24T04:35:47.627Z,6.91
2023-03-24T04:36:47.533Z,7.44
2023-03-24T04:39:47.516Z,7.26
2023-03-24T04:48:47.604Z,6.45
2023-03-24T04:49:47.667Z,7.25
2023-03-24T04:50:47.673Z,7.58
2023-03-24T04:51:47.694Z,6.85
2023-03-24T04:52:47.721Z,6.35
2023-03-24T04:53:47.742Z,7.09
2023-03-24T04:54:47.795Z,6.67
2023-03-24T04:55:47.841Z,7.06
2023-03-24T04:56:48.146Z,6.63
2023-03-24T04:57:47.925Z,6.75
2023-03-24T04:58:47.959Z,6.99
2023-03-24T04:59:48.000Z,6.84
2023-03-24T05:00:48.098Z,7.32
2023-03-24T05:01:48.108Z,6.83
2023-03-24T05:02:48.180Z,6.50
2023-03-24T05:03:48.307Z,7.55
2023-03-24T05:04:48.278Z,6.69
2023-03-24T05:05:48.336Z,7.17
2023-03-24T05:06:48.417Z,6.80
2023-03-24T05:07:48.470Z,6.42
2023-03-24T05:08:48.538Z,7.50
2023-03-24T05:09:48.577Z,6.99
2023-03-24T05:10:48.623Z,7.25
2023-03-24T05:11:48.722Z,7.15
2023-03-24T05:12:48.838Z,6.93
2023-03-24T05:13:48.815Z,7.00
2023-03-24T05:14:48.919Z,6.47
2023-03-24T05:15:48.957Z,7.24
2023-03-24T05:16:49.072Z,6.45
2023-03-24T05:17:49.191Z,6.64
2023-03-24T05:18:49.204Z,6.93
2023-03-24T05:19:49.242Z,7.32
2023-03-24T05:20:49.336Z,6.07
2023-03-24T05:21:49.361Z,7.02
2023-03-24T05:22:49.399Z,7.15
2023-03-24T05:23:49.498Z,7.12
2023-03-24T05:24:49.559Z,6.67
2023-03-24T05:25:49.609Z,6.09
2023-03-24T05:26:49.677Z,5.85
2023-03-24T05:27:49.725Z,6.89
2023-03-24T05:28:49.788Z,6.12
2023-03-24T05:29:49.866Z,6.41
2023-03-24T05:30:49.970Z,6.67
2023-03-24T05:31:49.992Z,6.41
2023-03-24T05:32:50.060Z,6.73
2023-03-24T05:33:50.060Z,6.75
2023-03-24T05:34:50.147Z,6.79
2023-03-24T05:35:50.222Z,6.79
2023-03-24T05:36:50.270Z,6.70
2023-03-24T05:37:50.317Z,6.31
2023-03-24T05:38:50.339Z,7.03
2023-03-24T05:39:50.406Z,7.22
2023-03-24T05:40:50.466Z,6.61
2023-03-24T05:41:50.596Z,6.89
2023-03-24T05:42:50.560Z,6.42
2023-03-24T05:43:50.629Z,7.32
2023-03-24T05:44:50.714Z,7.15
2023-03-24T05:45:50.808Z,7.11
2023-03-24T05:46:50.820Z,6.98
2023-03-24T05:47:50.987Z,6.05
2023-03-24T05:56:51.382Z,6.85
2023-03-24T05:57:51.395Z,7.04
2023-03-24T05:58:51.473Z,6.28
2023-03-24T05:59:51.515Z,6.63
2023-03-24T06:00:58.540Z,6.34
2023-03-24T06:01:51.566Z,6.97
2023-03-24T06:08:51.539Z,6.42
2023-03-24T06:10:51.496Z,7.03
2023-03-24T06:11:51.500Z,6.25
2023-03-24T06:12:51.489Z,6.68
2023-03-24T06:15:51.488Z,6.12
2023-03-24T06:21:51.442Z,6.84
2023-03-24T06:24:51.386Z,6.17
2023-03-24T06:29:51.426Z,8.54
2023-03-24T06:30:51.481Z,8.34
2023-03-24T06:31:51.638Z,8.19
2023-03-24T06:32:51.626Z,7.73
2023-03-24T06:36:51.680Z,7.63
2023-03-24T06:39:51.643Z,9.57
2023-03-24T06:40:51.637Z,8.53
2023-03-24T06:41:52.152Z,8.43
2023-03-24T06:45:59.211Z,8.78
2023-03-24T06:48:51.655Z,9.01
2023-03-24T06:49:51.655Z,7.89
2023-03-24T06:50:51.674Z,7.35
2023-03-24T06:51:51.638Z,8.22
2023-03-24T06:52:51.642Z,7.66
2023-03-24T06:53:51.622Z,8.54
2023-03-24T06:54:51.587Z,8.03
2023-03-24T06:55:51.605Z,7.71
2023-03-24T06:56:51.661Z,7.41
2023-03-24T06:57:51.617Z,7.92
2023-03-24T06:58:51.589Z,7.37
2023-03-24T07:00:51.593Z,7.00
2023-03-24T07:02:51.635Z,7.65
2023-03-24T07:03:51.680Z,6.61
2023-03-24T07:04:51.637Z,6.95
2023-03-24T07:05:51.556Z,6.77
2023-03-24T07:08:51.533Z,6.50
2023-03-24T07:09:51.512Z,7.30
2023-03-24T07:11:51.561Z,6.84
2023-03-24T07:12:51.626Z,6.25
2023-03-24T07:13:51.679Z,5.54
2023-03-24T07:14:51.796Z,5.87
2023-03-24T07:15:51.814Z,6.26
2023-03-24T07:16:51.858Z,5.97
2023-03-24T07:17:51.979Z,5.45
2023-03-24T07:18:51.958Z,5.51
2023-03-24T07:19:52.037Z,5.93
2023-03-24T07:22:52.144Z,5.89
2023-03-24T07:23:52.150Z,6.02
2023-03-24T07:24:54.064Z,5.24
2023-03-24T07:25:52.201Z,5.64
2023-03-24T07:26:52.276Z,5.78
2023-03-24T07:27:52.350Z,5.92
2023-03-24T07:29:52.399Z,6.77
2023-03-24T07:30:55.260Z,6.90
2023-03-24T07:36:52.374Z,5.47
2023-03-24T07:37:52.704Z,5.12
2023-03-24T07:43:52.350Z,6.95
2023-03-24T07:44:52.365Z,6.64
2023-03-24T07:45:52.398Z,6.64
2023-03-24T07:48:52.346Z,7.35
2023-03-24T07:49:52.338Z,7.31
2023-03-24T07:50:52.277Z,6.67
2023-03-24T07:51:52.337Z,7.24
2023-03-24T07:53:52.315Z,7.27
2023-03-24T07:54:52.320Z,7.10
2023-03-24T08:02:52.397Z,6.67
2023-03-24T08:04:52.265Z,6.53
2023-03-24T08:08:52.164Z,7.10
2023-03-24T08:13:52.197Z,6.40
2023-03-24T08:17:52.270Z,6.50
2023-03-24T08:18:52.708Z,7.11
2023-03-24T08:23:53.276Z,5.68
2023-03-24T08:24:53.197Z,5.95
2023-03-24T08:29:52.613Z,5.50
2023-03-24T08:30:52.661Z,5.49
2023-03-24T08:31:52.691Z,5.73
2023-03-24T08:32:52.648Z,5.52
2023-03-24T08:33:52.718Z,6.77
2023-03-24T08:35:52.856Z,6.43
2023-03-24T08:36:52.764Z,6.55
2023-03-24T08:37:52.796Z,8.48
2023-03-24T08:38:52.825Z,7.10
2023-03-24T08:39:52.893Z,9.12
2023-03-24T08:40:52.966Z,8.36
2023-03-24T08:41:52.950Z,8.38
2023-03-24T08:42:52.973Z,8.25
2023-03-24T08:43:53.057Z,9.15
2023-03-24T08:44:53.052Z,9.16
2023-03-24T08:45:53.101Z,8.66
2023-03-24T08:46:53.229Z,8.13
2023-03-24T08:47:53.274Z,7.63
2023-03-24T08:48:53.210Z,7.52
2023-03-24T08:49:53.230Z,8.29
2023-03-24T08:50:53.244Z,7.79
2023-03-24T08:53:53.310Z,6.91
2023-03-24T08:54:53.428Z,7.81
2023-03-24T08:55:53.472Z,8.03
2023-03-24T09:00:53.516Z,7.76
2023-03-24T09:01:53.629Z,7.36
2023-03-24T09:02:53.699Z,6.22
2023-03-24T09:03:53.770Z,8.39
2023-03-24T09:04:54.220Z,8.54
2023-03-24T09:07:53.732Z,7.89
2023-03-24T09:08:53.766Z,7.29
2023-03-24T09:09:53.802Z,8.63
2023-03-24T09:10:53.821Z,7.11
2023-03-24T09:11:53.816Z,7.28
2023-03-24T09:17:54.080Z,6.64
2023-03-24T09:18:54.043Z,6.89
2023-03-24T09:19:54.141Z,6.66
2023-03-24T09:20:54.175Z,7.31
2023-03-24T09:21:54.217Z,6.93
2023-03-24T09:22:54.264Z,7.44
2023-03-24T09:23:54.305Z,7.26
2023-03-24T09:24:54.314Z,7.17
2023-03-24T09:25:54.356Z,6.42
2023-03-24T09:26:54.444Z,7.02
2023-03-24T09:27:54.433Z,7.01
2023-03-24T09:28:54.499Z,7.53
2023-03-24T09:29:54.563Z,6.87
2023-03-24T09:30:54.607Z,7.10
2023-03-24T09:31:54.643Z,7.86
2023-03-24T09:32:54.749Z,8.08
2023-03-24T09:33:55.246Z,7.18
2023-03-24T09:41:55.070Z,7.10
2023-03-24T09:42:55.308Z,7.04
2023-03-24T09:43:55.126Z,7.01
2023-03-24T09:44:55.165Z,6.32
2023-03-24T09:45:55.298Z,6.44
2023-03-24T09:46:55.357Z,6.98
2023-03-24T09:47:55.445Z,6.25
2023-03-24T09:48:55.614Z,5.93
2023-03-24T09:57:55.833Z,7.15
2023-03-24T09:58:55.884Z,7.15
2023-03-24T09:59:56.219Z,7.14
2023-03-24T10:00:57.526Z,6.88
2023-03-24T10:01:56.010Z,5.92
2023-03-24T10:02:57.497Z,6.64
2023-03-24T10:03:56.307Z,6.16
2023-03-24T10:08:56.116Z,6.54
2023-03-24T10:09:56.263Z,6.31
2023-03-24T10:11:56.206Z,6.73
2023-03-24T10:12:56.318Z,6.01
2023-03-24T10:13:56.432Z,5.97
2023-03-24T10:14:56.514Z,5.45
2023-03-24T10:15:56.631Z,6.22
2023-03-24T10:16:56.682Z,5.21
2023-03-24T10:17:56.795Z,5.79
2023-03-24T10:18:56.848Z,5.74
2023-03-24T10:20:00.043Z,5.42
2023-03-24T10:24:56.844Z,5.25
2023-03-24T10:28:56.825Z,5.05
2023-03-24T10:31:57.817Z,5.19
2023-03-24T10:32:56.825Z,5.25
2023-03-24T10:33:56.784Z,4.88
2023-03-24T10:34:56.792Z,4.90
2023-03-24T10:35:56.869Z,5.07
2023-03-24T10:38:58.690Z,5.16
2023-03-24T10:39:56.793Z,5.01
2023-03-24T10:43:56.714Z,7.78
2023-03-24T10:44:56.778Z,7.50
2023-03-24T10:49:56.788Z,7.59
2023-03-24T10:50:56.686Z,7.31
2023-03-24T10:51:56.686Z,7.38
2023-03-24T10:52:56.632Z,6.87
2023-03-24T10:53:56.680Z,6.88
2023-03-24T10:56:56.675Z,7.25
2023-03-24T11:01:56.579Z,8.09
2023-03-24T11:02:56.700Z,7.23
2023-03-24T11:03:56.562Z,6.39
2023-03-24T11:04:56.777Z,6.27
2023-03-24T11:05:56.557Z,6.46
2023-03-24T11:06:56.549Z,6.87
2023-03-24T11:11:56.514Z,8.21
2023-03-24T11:12:56.540Z,8.63
2023-03-24T11:15:56.468Z,8.16
2023-03-24T11:16:56.593Z,8.67
2023-03-24T11:21:56.441Z,9.25
2023-03-24T11:22:56.411Z,8.40
2023-03-24T11:23:56.493Z,8.53
2023-03-24T11:24:56.812Z,8.15
2023-03-24T11:26:56.433Z,9.26
2023-03-24T11:27:56.428Z,9.08
2023-03-24T11:28:56.401Z,8.32
2023-03-24T11:29:56.798Z,9.03
2023-03-24T11:34:56.806Z,8.95
2023-03-24T11:37:56.311Z,9.41
2023-03-24T11:38:56.496Z,9.26
2023-03-24T11:39:56.782Z,8.50
2023-03-24T11:43:56.427Z,8.60
2023-03-24T11:44:56.487Z,9.07
2023-03-24T11:45:56.539Z,9.02
2023-03-24T11:46:56.569Z,8.73
2023-03-24T11:47:56.632Z,8.69
2023-03-24T11:51:56.660Z,9.07
2023-03-24T11:52:56.720Z,7.55
2023-03-24T11:53:56.720Z,8.62
2023-03-24T11:54:56.785Z,8.33
2023-03-24T11:55:56.803Z,8.00
2023-03-24T11:56:56.889Z,7.54
2023-03-24T11:57:56.886Z,7.96
2023-03-24T11:58:56.922Z,8.20
2023-03-24T11:59:56.944Z,7.32
2023-03-24T12:00:56.979Z,8.47
2023-03-24T12:01:57.043Z,7.17
2023-03-24T12:02:57.138Z,8.34
2023-03-24T12:03:57.293Z,8.08
2023-03-24T12:04:57.154Z,7.49
2023-03-24T12:05:57.559Z,7.97
2023-03-24T12:06:57.230Z,7.76
2023-03-24T12:07:57.392Z,6.83
2023-03-24T12:09:57.389Z,7.79
2023-03-24T12:10:57.812Z,7.04
2023-03-24T12:17:57.821Z,7.48
2023-03-24T12:18:57.870Z,7.46
2023-03-24T12:19:58.012Z,6.93
2023-03-24T12:20:57.985Z,7.04
2023-03-24T12:21:58.005Z,7.31
2023-03-24T12:22:58.085Z,7.60
2023-03-24T12:23:58.192Z,7.09
2023-03-24T12:28:58.401Z,6.90
2023-03-24T12:29:58.386Z,7.69
2023-03-24T12:30:58.825Z,8.26
2023-03-24T12:31:58.519Z,7.40
2023-03-24T12:32:58.605Z,7.12
2023-03-24T12:33:58.623Z,7.63
2023-03-24T12:34:58.696Z,6.86
2023-03-24T12:35:58.947Z,7.09
2023-03-24T12:36:58.843Z,7.70
2023-03-24T12:37:58.840Z,6.92
2023-03-24T12:38:58.910Z,7.21
2023-03-24T12:39:58.963Z,6.87
2023-03-24T12:40:59.304Z,7.27
2023-03-24T12:41:59.086Z,7.26
2023-03-24T12:42:59.161Z,6.81
2023-03-24T12:43:59.199Z,7.32
2023-03-24T12:44:59.270Z,6.17
2023-03-24T12:45:59.401Z,6.79
2023-03-24T12:46:59.460Z,7.01
2023-03-24T12:47:59.498Z,7.30
2023-03-24T12:48:59.498Z,6.87
2023-03-24T12:49:59.556Z,6.98
2023-03-24T12:50:59.610Z,6.41
2023-03-24T12:51:59.671Z,7.26
2023-03-24T12:53:07.829Z,7.08
2023-03-24T12:54:00.684Z,6.82
2023-03-24T13:00:59.709Z,6.68
2023-03-24T13:01:59.707Z,7.34
2023-03-24T13:02:59.700Z,7.18
2023-03-24T13:03:59.658Z,6.99
2023-03-24T13:04:59.710Z,7.14
2023-03-24T13:06:07.377Z,6.60
2023-03-24T13:07:00.773Z,7.44
2023-03-24T13:12:59.703Z,6.93
2023-03-24T13:14:59.713Z,6.64
2023-03-24T13:15:59.691Z,6.06
2023-03-24T13:16:59.764Z,6.16
2023-03-24T13:17:59.823Z,6.79
2023-03-24T13:18:59.815Z,6.40
2023-03-24T13:19:59.848Z,6.46
2023-03-24T13:20:59.922Z,6.97
2023-03-24T13:21:59.970Z,6.50
2023-03-24T13:23:00.004Z,6.05
2023-03-24T13:24:00.099Z,6.47
2023-03-24T13:25:00.120Z,6.59
2023-03-24T13:26:00.184Z,6.61
2023-03-24T13:27:00.181Z,6.88
2023-03-24T13:28:00.240Z,7.22
2023-03-24T13:29:00.291Z,6.18
2023-03-24T13:30:00.348Z,6.86
2023-03-24T13:31:00.412Z,6.55
2023-03-24T13:32:00.490Z,6.95
2023-03-24T13:33:00.544Z,7.16
2023-03-24T13:34:00.531Z,7.80
2023-03-24T13:35:00.585Z,6.30
2023-03-24T13:36:00.658Z,6.84
2023-03-24T13:37:00.696Z,6.94
2023-03-24T13:38:00.722Z,7.13
2023-03-24T13:39:00.758Z,7.61
2023-03-24T13:40:00.820Z,9.43
2023-03-24T13:41:00.855Z,12.52
2023-03-24T13:42:00.889Z,12.65
2023-03-24T13:43:00.936Z,12.76
2023-03-24T13:44:00.933Z,15.18
2023-03-24T13:46:01.049Z,15.97
2023-03-24T13:47:01.137Z,14.76
2023-03-24T13:48:01.164Z,15.20
2023-03-24T13:49:01.206Z,15.90
2023-03-24T13:50:01.281Z,15.43
2023-03-24T13:51:01.300Z,14.92
2023-03-24T13:52:01.303Z,15.12
2023-03-24T13:53:01.308Z,14.60
2023-03-24T13:54:01.356Z,13.46
2023-03-24T13:55:01.330Z,13.22
2023-03-24T13:56:01.411Z,13.78
2023-03-24T13:57:01.490Z,12.28
2023-03-24T13:58:01.466Z,10.92
2023-03-24T13:59:01.511Z,11.63
2023-03-24T14:00:01.575Z,11.18
2023-03-24T14:02:01.612Z,10.22
2023-03-24T14:09:01.665Z,9.40
2023-03-24T14:10:01.692Z,10.24
2023-03-24T14:13:01.697Z,9.36
2023-03-24T14:14:01.694Z,10.10
2023-03-24T14:15:01.740Z,9.50
2023-03-24T14:16:01.796Z,9.89
2023-03-24T14:19:01.750Z,9.24
2023-03-24T14:24:01.716Z,8.99
2023-03-24T14:25:01.804Z,8.55
2023-03-24T14:26:01.725Z,8.49
2023-03-24T14:27:01.745Z,8.27
2023-03-24T14:28:01.753Z,8.71
2023-03-24T14:29:01.780Z,8.95
2023-03-24T14:34:01.789Z,7.93
2023-03-24T14:37:01.767Z,7.91
2023-03-24T14:41:01.772Z,7.37
2023-03-24T14:42:01.810Z,7.30
2023-03-24T14:43:01.816Z,7.96
2023-03-24T14:45:01.880Z,7.64
2023-03-24T14:46:01.866Z,7.90
2023-03-24T14:47:01.838Z,7.18
2023-03-24T14:48:01.907Z,7.80
2023-03-24T14:50:01.880Z,7.01
2023-03-24T14:51:01.830Z,7.77
2023-03-24T14:52:01.884Z,7.55
2023-03-24T14:55:01.909Z,7.40
2023-03-24T14:56:01.909Z,7.02
2023-03-24T14:57:01.969Z,6.88
2023-03-24T14:58:01.926Z,7.09
2023-03-24T14:59:01.959Z,7.43
2023-03-24T15:00:01.983Z,7.38
2023-03-24T15:02:02.054Z,7.79
2023-03-24T15:08:01.975Z,7.59
2023-03-24T15:09:02.000Z,6.79
2023-03-24T15:15:01.981Z,6.78
2023-03-24T15:21:01.899Z,7.39
2023-03-24T15:22:01.935Z,6.62
2023-03-24T15:23:01.924Z,6.91
2023-03-24T15:33:01.915Z,6.49
2023-03-24T15:35:01.840Z,6.29
2023-03-24T15:36:01.857Z,6.50
2023-03-24T15:38:01.805Z,6.50
2023-03-24T15:45:01.755Z,6.50
2023-03-24T15:46:11.965Z,6.59
2023-03-24T15:47:02.762Z,5.80
2023-03-24T15:54:01.645Z,5.91
2023-03-24T16:08:01.577Z,5.24
2023-03-24T16:10:01.591Z,5.44
2023-03-24T16:14:01.515Z,5.81
2023-03-24T16:15:01.557Z,5.73
2023-03-24T16:16:01.539Z,6.19
2023-03-24T16:23:01.577Z,5.93
2023-03-24T16:24:01.551Z,5.54
2023-03-24T16:25:01.559Z,5.95
2023-03-24T16:26:01.550Z,5.77
2023-03-24T16:27:01.601Z,5.86
2023-03-24T16:33:01.656Z,5.64
2023-03-24T16:34:01.594Z,5.93
2023-03-24T16:35:01.696Z,5.68
2023-03-24T16:50:01.859Z,5.26
2023-03-24T16:51:01.872Z,5.38
2023-03-24T16:52:01.877Z,4.61
2023-03-24T16:56:01.870Z,5.17
2023-03-24T16:58:01.903Z,4.97
2023-03-24T17:12:02.019Z,4.74
2023-03-24T17:38:02.135Z,3.31
2023-03-24T17:39:02.129Z,3.44
2023-03-24T17:45:02.172Z,3.35
2023-03-24T17:46:02.184Z,2.94
2023-03-24T17:47:02.276Z,3.63
2023-03-24T17:48:02.244Z,3.53
2023-03-24T17:49:02.206Z,3.41
2023-03-24T17:50:02.235Z,3.38
2023-03-24T17:56:02.213Z,3.45
2023-03-24T17:57:02.275Z,2.62
2023-03-24T17:58:02.244Z,3.10
2023-03-24T17:59:02.267Z,2.99
2023-03-24T18:00:02.336Z,2.95
2023-03-24T18:05:02.317Z,2.69
2023-03-24T18:06:02.334Z,2.91
2023-03-24T18:07:02.320Z,2.79
2023-03-24T18:08:02.353Z,2.29
2023-03-24T18:09:02.387Z,2.44
2023-03-24T18:10:02.494Z,2.46
2023-03-24T18:11:02.441Z,2.48
2023-03-24T18:12:02.458Z,2.70
2023-03-24T18:13:02.465Z,2.75
2023-03-24T18:14:02.502Z,2.84
2023-03-24T18:15:02.537Z,3.07
2023-03-24T18:16:13.119Z,3.00
2023-03-24T18:17:03.557Z,2.58
2023-03-24T18:23:02.500Z,2.74
2023-03-24T18:26:02.481Z,2.60
2023-03-24T18:31:02.413Z,2.23
2023-03-24T18:32:02.457Z,2.56
2023-03-24T18:33:02.472Z,2.46
2023-03-24T18:40:02.361Z,2.63
2023-03-24T18:41:02.421Z,2.25
2023-03-24T18:50:02.517Z,2.32
2023-03-24T18:51:02.538Z,1.94
2023-03-24T18:52:02.580Z,2.36
2023-03-24T18:53:02.584Z,2.03
2023-03-24T18:54:02.624Z,2.09
2023-03-24T18:55:02.650Z,2.36
2023-03-24T18:56:02.664Z,2.47
2023-03-24T18:57:02.671Z,2.29
2023-03-24T18:58:02.692Z,2.21
2023-03-24T18:59:02.727Z,2.47
2023-03-24T19:00:02.738Z,2.38
2023-03-24T19:01:02.905Z,2.40
2023-03-24T19:02:02.804Z,2.19
2023-03-24T19:03:03.060Z,2.23
2023-03-24T19:04:02.849Z,2.25
2023-03-24T19:13:03.108Z,2.51
2023-03-24T19:14:03.148Z,2.29
2023-03-24T19:15:03.153Z,2.07
2023-03-24T19:16:03.191Z,2.10
2023-03-24T19:17:03.198Z,2.20
2023-03-24T19:18:03.804Z,2.29
2023-03-24T19:19:03.277Z,2.29
2023-03-24T19:20:03.293Z,2.52
2023-03-24T19:21:03.315Z,2.33
2023-03-24T19:22:03.345Z,2.39
2023-03-24T19:23:03.361Z,2.40
2023-03-24T19:24:03.394Z,2.21
2023-03-24T19:25:03.412Z,2.22
2023-03-24T19:26:03.440Z,2.29
2023-03-24T19:27:03.487Z,1.95
2023-03-24T19:28:03.501Z,1.92
2023-03-24T19:29:03.548Z,2.08
2023-03-24T19:30:03.580Z,2.31
2023-03-24T19:31:03.603Z,2.08
2023-03-24T19:32:03.623Z,2.14
2023-03-24T19:36:03.623Z,2.11
2023-03-24T19:39:03.700Z,1.84
2023-03-24T19:40:03.728Z,1.60
2023-03-24T19:41:03.805Z,2.07
2023-03-24T19:42:03.791Z,2.14
2023-03-24T19:43:03.862Z,2.04
2023-03-24T19:44:03.860Z,1.92
2023-03-24T19:45:03.932Z,1.58
2023-03-24T19:46:03.955Z,1.86
2023-03-24T19:47:03.999Z,1.87
2023-03-24T19:48:04.082Z,1.98
2023-03-24T19:49:04.061Z,1.96
2023-03-24T19:50:04.104Z,1.65
2023-03-24T19:51:04.163Z,1.91
2023-03-24T19:52:04.216Z,2.35
2023-03-24T19:53:04.293Z,1.60
2023-03-24T19:54:04.282Z,1.72
2023-03-24T19:55:04.303Z,1.79
2023-03-24T19:56:04.365Z,2.03
2023-03-24T19:57:04.445Z,1.90
2023-03-24T19:58:04.402Z,1.97
2023-03-24T19:59:04.446Z,1.43
2023-03-24T20:00:04.480Z,1.71
2023-03-24T20:01:04.509Z,1.96
2023-03-24T20:02:04.599Z,1.59
2023-03-24T20:03:04.664Z,2.09
2023-03-24T20:04:04.653Z,1.73
2023-03-24T20:05:04.681Z,1.81
2023-03-24T20:06:04.689Z,1.88
2023-03-24T20:07:04.763Z,1.84
2023-03-24T20:08:04.810Z,1.72
2023-03-24T20:11:04.918Z,1.92
2023-03-24T20:12:04.968Z,1.60
2023-03-24T20:13:04.990Z,1.73
2023-03-24T20:14:05.010Z,1.58
2023-03-24T20:15:05.109Z,1.61
2023-03-24T20:16:05.173Z,1.78
2023-03-24T20:17:05.176Z,1.75
2023-03-24T20:18:05.262Z,1.86
2023-03-24T20:19:05.219Z,1.59
2023-03-24T20:20:05.278Z,1.62
2023-03-24T20:21:05.337Z,1.58
2023-03-24T20:24:05.439Z,1.80
2023-03-24T20:31:05.628Z,1.62
2023-03-24T20:32:06.507Z,1.38
2023-03-24T20:33:05.748Z,1.78
2023-03-24T20:34:05.696Z,1.62
2023-03-24T20:35:05.749Z,1.65
2023-03-24T20:36:05.826Z,1.50
2023-03-24T20:37:05.835Z,1.78
2023-03-24T20:38:05.873Z,1.84
2023-03-24T20:39:05.931Z,1.42
2023-03-24T20:40:05.957Z,1.89
2023-03-24T20:41:06.043Z,1.68
2023-03-24T20:42:06.046Z,1.62
2023-03-24T20:43:06.070Z,1.75
2023-03-24T20:44:06.138Z,1.74
2023-03-24T20:45:06.153Z,1.69
2023-03-24T20:46:06.265Z,1.40
2023-03-24T20:47:06.266Z,1.63
2023-03-24T20:48:06.391Z,1.71
2023-03-24T20:49:06.353Z,1.77
2023-03-24T20:50:06.390Z,1.87
2023-03-24T20:51:06.457Z,1.83
2023-03-24T20:52:06.498Z,1.84
2023-03-24T20:57:06.720Z,1.77
2023-03-24T20:58:06.685Z,1.60
2023-03-24T20:59:06.710Z,1.54
2023-03-24T21:00:06.763Z,1.78
2023-03-24T21:01:06.857Z,1.69
2023-03-24T21:02:06.932Z,1.80
2023-03-24T21:03:06.988Z,2.01
2023-03-24T21:04:09.237Z,1.61
2023-03-24T21:05:07.032Z,1.61
2023-03-24T21:06:07.048Z,1.88
2023-03-24T21:07:07.126Z,1.37
2023-03-24T21:08:07.173Z,1.64
2023-03-24T21:09:07.202Z,1.47
2023-03-24T21:10:07.255Z,1.24
2023-03-24T21:11:07.309Z,1.32
2023-03-24T21:13:08.681Z,1.55
2023-03-24T21:14:07.499Z,1.88
2023-03-24T21:15:07.496Z,1.61
2023-03-24T21:16:08.509Z,1.70
2023-03-24T21:17:07.589Z,1.59
2023-03-24T21:18:07.647Z,1.44
2023-03-24T21:19:07.706Z,1.47